Terminal Aerodrome Forecast
Issued by NWS

Home | Current Version | Previous Version | Text Only | Print | Product List | Glossary On
Versions: 1 2 3 4 5 6 7 8 9 10 11 12 13 14 15 16 17 18 19 20 21 22
132
FTUS46 KEKA 270520
TAFCEC
TAF
KCEC 270520Z 2706/2806 34008KT P6SM FEW009 SCT015
     FM271100 35007KT 5SM BR SCT009 BKN015
     FM271500 35010G20KT P6SM SCT015 SCT250
     FM271800 34018G30KT P6SM SKC
     FM280400 34010G20KT P6SM SCT015 SCT250=

USA.gov is the U.S. government's official web portal to all federal, state and local government web resources and services.